NOZ414 ENGM-ENAL
Flight info
| Callsign | NOZ414 |
|---|---|
| Flight time | 0h 41m |
| Altitude | 30000 |
| Route | EVTOG DCT UTRUF DCT UFGUG DCT OBITI |
| Aircraft | B738/M-SDE2E3GHIJ1LRWXY/LB1 |
Departure
| Time | 2026-05-05 14:10 |
|---|---|
| Airport | Oslo-Gardermoen International Airport (ENGM) |
Arrival
| Time | 2026-05-05 14:51 |
|---|---|
| Airport | Ålesund Airport (ENAL) |
| Time | Latitude | Longitude | Altitude | Speed | Heading |
|---|---|---|---|---|---|
| 2026-05-05 13:41 | 60.19531 | 11.09654 | 684 ft | 0 kts | 196° |
| 2026-05-05 14:01 | 60.19548 | 11.09664 | 676 ft | 4 kts | 196° |
| 2026-05-05 14:01 | 60.19572 | 11.09678 | 679 ft | 2 kts | 196° |
| 2026-05-05 14:01 | 60.19574 | 11.09679 | 679 ft | 0 kts | 196° |
| 2026-05-05 14:04 | 60.19568 | 11.09669 | 677 ft | 2 kts | 224° |
| 2026-05-05 14:04 | 60.19569 | 11.09638 | 681 ft | 2 kts | 299° |
| 2026-05-05 14:04 | 60.19585 | 11.09615 | 680 ft | 4 kts | 330° |
| 2026-05-05 14:05 | 60.19631 | 11.09562 | 682 ft | 12 kts | 330° |
| 2026-05-05 14:05 | 60.19679 | 11.09417 | 682 ft | 14 kts | 286° |
| 2026-05-05 14:05 | 60.19709 | 11.09209 | 682 ft | 17 kts | 286° |
| 2026-05-05 14:05 | 60.19742 | 11.08976 | 679 ft | 19 kts | 286° |
| 2026-05-05 14:06 | 60.19774 | 11.08736 | 677 ft | 14 kts | 275° |
| 2026-05-05 14:06 | 60.19727 | 11.08644 | 678 ft | 11 kts | 197° |
| 2026-05-05 14:06 | 60.19645 | 11.08597 | 677 ft | 14 kts | 196° |
| 2026-05-05 14:06 | 60.19543 | 11.08539 | 677 ft | 17 kts | 196° |
| 2026-05-05 14:07 | 60.19421 | 11.08468 | 675 ft | 20 kts | 196° |
| 2026-05-05 14:07 | 60.19278 | 11.08385 | 674 ft | 22 kts | 196° |
| 2026-05-05 14:07 | 60.19122 | 11.08296 | 672 ft | 25 kts | 196° |
| 2026-05-05 14:07 | 60.18977 | 11.08211 | 672 ft | 22 kts | 196° |
| 2026-05-05 14:08 | 60.18821 | 11.08121 | 671 ft | 25 kts | 196° |
| 2026-05-05 14:08 | 60.18648 | 11.08022 | 670 ft | 27 kts | 196° |
| 2026-05-05 14:08 | 60.18541 | 11.07938 | 667 ft | 10 kts | 237° |
| 2026-05-05 14:08 | 60.18554 | 11.07761 | 664 ft | 16 kts | 286° |
| 2026-05-05 14:09 | 60.18586 | 11.07545 | 663 ft | 16 kts | 286° |
| 2026-05-05 14:09 | 60.18630 | 11.07453 | 665 ft | 5 kts | 9° |
| 2026-05-05 14:09 | 60.18646 | 11.07461 | 665 ft | 0 kts | 14° |
| 2026-05-05 14:09 | 60.18669 | 11.07473 | 666 ft | 17 kts | 14° |
| 2026-05-05 14:10 | 60.19090 | 11.07712 | 669 ft | 107 kts | 16° |
| 2026-05-05 14:10 | 60.20059 | 11.08234 | 726 ft | 174 kts | 9° |
| 2026-05-05 14:10 | 60.21246 | 11.08856 | 1799 ft | 175 kts | 11° |
| 2026-05-05 14:10 | 60.22457 | 11.09556 | 2741 ft | 195 kts | 11° |
| 2026-05-05 14:11 | 60.23852 | 11.10330 | 2990 ft | 227 kts | 13° |
| 2026-05-05 14:11 | 60.25405 | 11.11223 | 3632 ft | 234 kts | 7° |
| 2026-05-05 14:11 | 60.27029 | 11.11184 | 4326 ft | 241 kts | 348° |
| 2026-05-05 14:11 | 60.28729 | 11.10635 | 5133 ft | 251 kts | 348° |
| 2026-05-05 14:12 | 60.30454 | 11.09943 | 6066 ft | 256 kts | 336° |
| 2026-05-05 14:12 | 60.31851 | 11.07818 | 7021 ft | 253 kts | 310° |
| 2026-05-05 14:12 | 60.32991 | 11.05120 | 8035 ft | 254 kts | 309° |
| 2026-05-05 14:12 | 60.34151 | 11.02344 | 8912 ft | 261 kts | 308° |
| 2026-05-05 14:13 | 60.35249 | 10.99726 | 9837 ft | 264 kts | 308° |
| 2026-05-05 14:13 | 60.36443 | 10.96895 | 10470 ft | 277 kts | 309° |
| 2026-05-05 14:13 | 60.37760 | 10.93789 | 10685 ft | 304 kts | 309° |
| 2026-05-05 14:13 | 60.39188 | 10.90437 | 11049 ft | 323 kts | 309° |
| 2026-05-05 14:14 | 60.40679 | 10.86958 | 11845 ft | 328 kts | 309° |
| 2026-05-05 14:14 | 60.42179 | 10.83467 | 12793 ft | 330 kts | 310° |
| 2026-05-05 14:14 | 60.43689 | 10.79964 | 13768 ft | 330 kts | 310° |
| 2026-05-05 14:14 | 60.45203 | 10.76450 | 14589 ft | 332 kts | 310° |
| 2026-05-05 14:15 | 60.46700 | 10.72968 | 15406 ft | 333 kts | 309° |
| 2026-05-05 14:15 | 60.48244 | 10.69373 | 16280 ft | 334 kts | 309° |
| 2026-05-05 14:15 | 60.49773 | 10.65805 | 17129 ft | 336 kts | 308° |
| 2026-05-05 14:15 | 60.51284 | 10.62275 | 17952 ft | 337 kts | 308° |
| 2026-05-05 14:16 | 60.52823 | 10.58675 | 18668 ft | 338 kts | 307° |
| 2026-05-05 14:16 | 60.54367 | 10.55058 | 19348 ft | 340 kts | 306° |
| 2026-05-05 14:16 | 60.55915 | 10.51427 | 20027 ft | 341 kts | 306° |
| 2026-05-05 14:16 | 60.57473 | 10.47766 | 20726 ft | 343 kts | 305° |
| 2026-05-05 14:17 | 60.59038 | 10.44085 | 21372 ft | 345 kts | 304° |
| 2026-05-05 14:17 | 60.60608 | 10.40383 | 22021 ft | 346 kts | 304° |
| 2026-05-05 14:17 | 60.62165 | 10.36707 | 22670 ft | 349 kts | 303° |
| 2026-05-05 14:17 | 60.63749 | 10.32959 | 23267 ft | 351 kts | 303° |
| 2026-05-05 14:18 | 60.65343 | 10.29180 | 23830 ft | 354 kts | 304° |
| 2026-05-05 14:18 | 60.66972 | 10.25303 | 23979 ft | 365 kts | 304° |
| 2026-05-05 14:18 | 60.68643 | 10.21328 | 24329 ft | 370 kts | 304° |
| 2026-05-05 14:18 | 60.70324 | 10.17333 | 24829 ft | 371 kts | 304° |
| 2026-05-05 14:19 | 60.72003 | 10.13340 | 25415 ft | 369 kts | 304° |
| 2026-05-05 14:19 | 60.73669 | 10.09371 | 26037 ft | 367 kts | 304° |
| 2026-05-05 14:19 | 60.75322 | 10.05422 | 26645 ft | 365 kts | 304° |
| 2026-05-05 14:19 | 60.76948 | 10.01527 | 27184 ft | 365 kts | 304° |
| 2026-05-05 14:20 | 60.78500 | 9.97800 | 27705 ft | 364 kts | 304° |
| 2026-05-05 14:20 | 60.80140 | 9.93857 | 28289 ft | 363 kts | 303° |
| 2026-05-05 14:20 | 60.81768 | 9.89934 | 28863 ft | 362 kts | 303° |
| 2026-05-05 14:20 | 60.83398 | 9.86002 | 29402 ft | 362 kts | 303° |
| 2026-05-05 14:21 | 60.85026 | 9.82062 | 29850 ft | 363 kts | 303° |
| 2026-05-05 14:21 | 60.86666 | 9.78085 | 29861 ft | 366 kts | 303° |
| 2026-05-05 14:21 | 60.89928 | 9.70170 | 29883 ft | 362 kts | 303° |
| 2026-05-05 14:22 | 60.93159 | 9.62294 | 29901 ft | 364 kts | 303° |
| 2026-05-05 14:22 | 60.96414 | 9.54335 | 29892 ft | 363 kts | 303° |
| 2026-05-05 14:23 | 60.99655 | 9.46386 | 29877 ft | 362 kts | 303° |
| 2026-05-05 14:23 | 61.02888 | 9.38422 | 29907 ft | 369 kts | 304° |
| 2026-05-05 14:24 | 61.06348 | 9.30526 | 29891 ft | 375 kts | 309° |
| 2026-05-05 14:24 | 61.10085 | 9.23059 | 29911 ft | 373 kts | 310° |
| 2026-05-05 14:25 | 61.13817 | 9.15616 | 29903 ft | 372 kts | 310° |
| 2026-05-05 14:25 | 61.17530 | 9.08142 | 29908 ft | 372 kts | 309° |
| 2026-05-05 14:26 | 61.21233 | 9.00636 | 29896 ft | 372 kts | 309° |
| 2026-05-05 14:26 | 61.24796 | 8.93383 | 29925 ft | 372 kts | 309° |
| 2026-05-05 14:27 | 61.28484 | 8.85845 | 29900 ft | 372 kts | 309° |
| 2026-05-05 14:27 | 61.32164 | 8.78299 | 29919 ft | 372 kts | 309° |
| 2026-05-05 14:28 | 61.35844 | 8.70724 | 29913 ft | 373 kts | 309° |
| 2026-05-05 14:28 | 61.39471 | 8.63242 | 29916 ft | 358 kts | 309° |
| 2026-05-05 14:29 | 61.41210 | 8.59660 | 29898 ft | 345 kts | 309° |
| 2026-05-05 14:29 | 61.42901 | 8.56166 | 29614 ft | 337 kts | 308° |
| 2026-05-05 14:29 | 61.44542 | 8.52754 | 29336 ft | 331 kts | 308° |
| 2026-05-05 14:29 | 61.46160 | 8.49384 | 28999 ft | 326 kts | 308° |
| 2026-05-05 14:30 | 61.47758 | 8.46051 | 28661 ft | 322 kts | 309° |
| 2026-05-05 14:30 | 61.49331 | 8.42762 | 28331 ft | 318 kts | 309° |
| 2026-05-05 14:30 | 61.50870 | 8.39543 | 27972 ft | 315 kts | 309° |
| 2026-05-05 14:30 | 61.52413 | 8.36313 | 27612 ft | 313 kts | 309° |
| 2026-05-05 14:31 | 61.53956 | 8.33072 | 27324 ft | 316 kts | 309° |
| 2026-05-05 14:31 | 61.55528 | 8.29760 | 26944 ft | 323 kts | 309° |
| 2026-05-05 14:31 | 61.57119 | 8.26409 | 26580 ft | 326 kts | 310° |
| 2026-05-05 14:31 | 61.58717 | 8.23044 | 26234 ft | 324 kts | 310° |
| 2026-05-05 14:32 | 61.60298 | 8.19692 | 25882 ft | 323 kts | 310° |
| 2026-05-05 14:32 | 61.61880 | 8.16345 | 25513 ft | 322 kts | 310° |
| 2026-05-05 14:32 | 61.63453 | 8.13037 | 25190 ft | 318 kts | 310° |
| 2026-05-05 14:32 | 61.65010 | 8.09748 | 24837 ft | 316 kts | 310° |
| 2026-05-05 14:33 | 61.66531 | 8.06524 | 24510 ft | 313 kts | 310° |
| 2026-05-05 14:33 | 61.68056 | 8.03288 | 24170 ft | 310 kts | 310° |
| 2026-05-05 14:33 | 61.69563 | 8.00082 | 23861 ft | 307 kts | 310° |
| 2026-05-05 14:33 | 61.70973 | 7.97076 | 23548 ft | 306 kts | 310° |
| 2026-05-05 14:34 | 61.72463 | 7.93897 | 23126 ft | 304 kts | 310° |
| 2026-05-05 14:34 | 61.73945 | 7.90729 | 22734 ft | 301 kts | 310° |
| 2026-05-05 14:34 | 61.75408 | 7.87600 | 22447 ft | 299 kts | 310° |
| 2026-05-05 14:34 | 61.76907 | 7.84386 | 22121 ft | 319 kts | 311° |
| 2026-05-05 14:35 | 61.78499 | 7.80945 | 21767 ft | 346 kts | 311° |
| 2026-05-05 14:35 | 61.80236 | 7.77193 | 21370 ft | 362 kts | 311° |
| 2026-05-05 14:35 | 61.82007 | 7.73379 | 20947 ft | 364 kts | 311° |
| 2026-05-05 14:35 | 61.83770 | 7.69585 | 20549 ft | 358 kts | 311° |
| 2026-05-05 14:36 | 61.85508 | 7.65840 | 20162 ft | 355 kts | 311° |
| 2026-05-05 14:36 | 61.87233 | 7.62112 | 19777 ft | 353 kts | 311° |
| 2026-05-05 14:36 | 61.88944 | 7.58401 | 19394 ft | 352 kts | 311° |
| 2026-05-05 14:36 | 61.90652 | 7.54691 | 18990 ft | 352 kts | 311° |
| 2026-05-05 14:37 | 61.92337 | 7.51022 | 18631 ft | 351 kts | 311° |
| 2026-05-05 14:37 | 61.94043 | 7.47303 | 18261 ft | 351 kts | 311° |
| 2026-05-05 14:37 | 61.95741 | 7.43595 | 17912 ft | 350 kts | 311° |
| 2026-05-05 14:37 | 61.97438 | 7.39887 | 17498 ft | 350 kts | 311° |
| 2026-05-05 14:38 | 61.99131 | 7.36173 | 17125 ft | 349 kts | 311° |
| 2026-05-05 14:38 | 62.00804 | 7.32473 | 16733 ft | 349 kts | 310° |
| 2026-05-05 14:38 | 62.02388 | 7.28517 | 16130 ft | 349 kts | 307° |
| 2026-05-05 14:38 | 62.03883 | 7.24497 | 15725 ft | 343 kts | 306° |
| 2026-05-05 14:39 | 62.05335 | 7.20543 | 15339 ft | 343 kts | 306° |
| 2026-05-05 14:39 | 62.06811 | 7.16542 | 14959 ft | 345 kts | 307° |
| 2026-05-05 14:39 | 62.08307 | 7.12518 | 14595 ft | 346 kts | 307° |
| 2026-05-05 14:39 | 62.09809 | 7.08504 | 14221 ft | 346 kts | 307° |
| 2026-05-05 14:40 | 62.11308 | 7.04507 | 13959 ft | 344 kts | 307° |
| 2026-05-05 14:40 | 62.13021 | 7.00937 | 13943 ft | 347 kts | 322° |
| 2026-05-05 14:40 | 62.15026 | 6.98676 | 13955 ft | 350 kts | 336° |
| 2026-05-05 14:40 | 62.17382 | 6.97293 | 13951 ft | 352 kts | 344° |
| 2026-05-05 14:41 | 62.19744 | 6.96166 | 13952 ft | 353 kts | 345° |
| 2026-05-05 14:41 | 62.22130 | 6.95014 | 13902 ft | 350 kts | 344° |
| 2026-05-05 14:41 | 62.24463 | 6.93875 | 13792 ft | 338 kts | 344° |
| 2026-05-05 14:41 | 62.26710 | 6.92766 | 13702 ft | 325 kts | 344° |
| 2026-05-05 14:42 | 62.28877 | 6.91687 | 13432 ft | 317 kts | 343° |
| 2026-05-05 14:42 | 62.31004 | 6.90616 | 13113 ft | 312 kts | 343° |
| 2026-05-05 14:42 | 62.33098 | 6.89559 | 12795 ft | 306 kts | 343° |
| 2026-05-05 14:42 | 62.35149 | 6.88520 | 12494 ft | 301 kts | 343° |
| 2026-05-05 14:43 | 62.37148 | 6.87508 | 12196 ft | 296 kts | 343° |
| 2026-05-05 14:43 | 62.39134 | 6.86499 | 11897 ft | 291 kts | 343° |
| 2026-05-05 14:43 | 62.41101 | 6.85496 | 11518 ft | 290 kts | 343° |
| 2026-05-05 14:43 | 62.43056 | 6.84498 | 11163 ft | 288 kts | 343° |
| 2026-05-05 14:44 | 62.45007 | 6.83503 | 10782 ft | 288 kts | 342° |
| 2026-05-05 14:44 | 62.46950 | 6.82506 | 10419 ft | 287 kts | 343° |
| 2026-05-05 14:44 | 62.48889 | 6.81513 | 10062 ft | 286 kts | 343° |
| 2026-05-05 14:44 | 62.50818 | 6.80523 | 9691 ft | 285 kts | 343° |
| 2026-05-05 14:45 | 62.52745 | 6.79538 | 9298 ft | 284 kts | 343° |
| 2026-05-05 14:45 | 62.54644 | 6.78562 | 8778 ft | 284 kts | 343° |
| 2026-05-05 14:45 | 62.56535 | 6.77463 | 8230 ft | 279 kts | 334° |
| 2026-05-05 14:45 | 62.58051 | 6.75037 | 7747 ft | 268 kts | 307° |
| 2026-05-05 14:46 | 62.59076 | 6.71721 | 7074 ft | 269 kts | 294° |
| 2026-05-05 14:46 | 62.59895 | 6.68013 | 6309 ft | 276 kts | 293° |
| 2026-05-05 14:46 | 62.60736 | 6.64223 | 5480 ft | 281 kts | 294° |
| 2026-05-05 14:46 | 62.61600 | 6.60387 | 4695 ft | 284 kts | 293° |
| 2026-05-05 14:47 | 62.62463 | 6.56582 | 4082 ft | 281 kts | 293° |
| 2026-05-05 14:47 | 62.63322 | 6.52818 | 3786 ft | 268 kts | 293° |
| 2026-05-05 14:47 | 62.63848 | 6.49167 | 3533 ft | 250 kts | 268° |
| 2026-05-05 14:47 | 62.63503 | 6.45634 | 3299 ft | 235 kts | 250° |
| 2026-05-05 14:48 | 62.62950 | 6.42344 | 2970 ft | 228 kts | 245° |
| 2026-05-05 14:48 | 62.62264 | 6.39308 | 2685 ft | 220 kts | 242° |
| 2026-05-05 14:48 | 62.61597 | 6.36364 | 2407 ft | 215 kts | 243° |
| 2026-05-05 14:48 | 62.60961 | 6.33476 | 2131 ft | 206 kts | 244° |
| 2026-05-05 14:49 | 62.60362 | 6.30746 | 1854 ft | 193 kts | 244° |
| 2026-05-05 14:49 | 62.59812 | 6.28245 | 1597 ft | 174 kts | 243° |
| 2026-05-05 14:49 | 62.59321 | 6.25999 | 1387 ft | 156 kts | 243° |
| 2026-05-05 14:49 | 62.58884 | 6.24018 | 1201 ft | 143 kts | 244° |
| 2026-05-05 14:50 | 62.58461 | 6.22087 | 1025 ft | 141 kts | 243° |
| 2026-05-05 14:50 | 62.58035 | 6.20143 | 835 ft | 144 kts | 243° |
| 2026-05-05 14:50 | 62.57608 | 6.18195 | 670 ft | 140 kts | 244° |
| 2026-05-05 14:50 | 62.57195 | 6.16306 | 491 ft | 136 kts | 244° |
| 2026-05-05 14:51 | 62.56800 | 6.14478 | 267 ft | 130 kts | 244° |
| 2026-05-05 14:51 | 62.56410 | 6.12691 | 99 ft | 132 kts | 244° |
| 2026-05-05 14:51 | 62.56059 | 6.11114 | 69 ft | 78 kts | 245° |
| 2026-05-05 14:51 | 62.55948 | 6.10574 | 66 ft | 27 kts | 245° |
| 2026-05-05 14:52 | 62.55880 | 6.10264 | 53 ft | 20 kts | 244° |
| 2026-05-05 14:52 | 62.55844 | 6.10084 | 52 ft | 8 kts | 257° |
| 2026-05-05 14:52 | 62.55830 | 6.10024 | 51 ft | 3 kts | 207° |
| 2026-05-05 14:52 | 62.55816 | 6.10034 | 49 ft | 2 kts | 139° |
| 2026-05-05 14:53 | 62.55815 | 6.10064 | 51 ft | 3 kts | 78° |
| 2026-05-05 14:53 | 62.55837 | 6.10137 | 50 ft | 9 kts | 53° |
| 2026-05-05 14:53 | 62.55883 | 6.10290 | 50 ft | 14 kts | 63° |
| 2026-05-05 14:53 | 62.55926 | 6.10479 | 68 ft | 14 kts | 64° |
| 2026-05-05 14:54 | 62.55946 | 6.10654 | 71 ft | 10 kts | 99° |
| 2026-05-05 14:54 | 62.55928 | 6.10801 | 69 ft | 10 kts | 106° |
| 2026-05-05 14:54 | 62.55910 | 6.10944 | 66 ft | 10 kts | 104° |
| 2026-05-05 14:54 | 62.55896 | 6.11084 | 67 ft | 9 kts | 92° |
| 2026-05-05 14:55 | 62.55913 | 6.11199 | 65 ft | 5 kts | 64° |
| 2026-05-05 14:55 | 62.55914 | 6.11203 | 72 ft | 0 kts | 65° |
| 2026-05-05 14:55 | 62.55917 | 6.11220 | 74 ft | 3 kts | 68° |
| 2026-05-05 14:55 | 62.55909 | 6.11261 | 67 ft | 3 kts | 137° |
| 2026-05-05 14:56 | 62.55893 | 6.11284 | 70 ft | 3 kts | 150° |
| 2026-05-05 14:56 | 62.55883 | 6.11296 | 74 ft | 1 kts | 152° |
| 2026-05-05 14:56 | 62.55878 | 6.11301 | 74 ft | 0 kts | 153° |